Time;durP1;ratioP1;P1;durP2;ratioP2;P2;SDS_P1;SDS_P2;PMS_P1;PMS_P2;Temp;Humidity;BMP_temperature;BMP_pressure;BME280_temperature;BME280_humidity;BME280_pressure;Samples;Min_cycle;Max_cycle;Signal;HPM_P1;HPM_P2
2022/05/03 00:01:42;;;;;;;3.25;2.95;;;12.60;59.00;;;;;;5108392;28;20027;-62
2022/05/03 00:04:23;;;;;;;3.22;2.78;;;12.50;58.80;;;;;;5097957;28;20024;-61
2022/05/03 00:07:09;;;;;;;3.97;2.95;;;12.50;59.50;;;;;;5105707;28;20110;-61
2022/05/03 00:09:44;;;;;;;4.07;3.60;;;12.40;59.50;;;;;;5101631;28;20028;-60
2022/05/03 00:12:14;;;;;;;3.95;3.10;;;12.50;59.20;;;;;;5098037;28;20427;-61
2022/05/03 00:14:54;;;;;;;3.45;2.90;;;12.40;59.30;;;;;;5105347;28;20072;-61
2022/05/03 00:17:22;;;;;;;5.50;3.08;;;12.40;59.80;;;;;;5102849;28;20035;-61
2022/05/03 00:19:48;;;;;;;3.58;3.28;;;12.40;59.00;;;;;;5108557;28;20089;-61
2022/05/03 00:22:14;;;;;;;5.60;3.15;;;12.30;59.30;;;;;;5097316;28;20025;-61
2022/05/03 00:24:41;;;;;;;3.53;3.20;;;12.30;59.40;;;;;;5090544;28;20036;-61
2022/05/03 00:27:07;;;;;;;4.22;3.38;;;12.20;59.40;;;;;;5106494;28;20028;-60
2022/05/03 00:29:34;;;;;;;3.75;3.08;;;12.20;59.50;;;;;;5104988;28;20072;-61
2022/05/03 00:32:03;;;;;;;4.63;3.40;;;12.10;59.60;;;;;;5104605;28;20043;-60
2022/05/03 00:34:33;;;;;;;5.95;3.20;;;12.10;60.00;;;;;;5103203;28;20032;-61
2022/05/03 00:37:00;;;;;;;3.15;2.85;;;12.10;60.00;;;;;;5100232;28;20368;-61
2022/05/03 00:39:26;;;;;;;4.28;3.08;;;12.10;59.80;;;;;;5100182;28;20033;-61
2022/05/03 00:42:16;;;;;;;3.70;2.90;;;12.00;60.00;;;;;;5105857;28;20032;-63
2022/05/03 00:45:01;;;;;;;3.40;2.85;;;12.00;61.30;;;;;;5097377;28;20020;-60
2022/05/03 00:47:53;;;;;;;4.72;3.40;;;12.00;60.70;;;;;;5098455;28;20035;-61
2022/05/03 00:50:50;;;;;;;3.95;3.15;;;12.00;61.30;;;;;;5106505;28;20044;-61
2022/05/03 00:53:32;;;;;;;4.57;2.80;;;12.00;61.30;;;;;;5098032;28;20059;-61
2022/05/03 00:56:10;;;;;;;3.63;2.50;;;11.90;61.00;;;;;;5099951;28;20020;-61
2022/05/03 00:59:11;;;;;;;6.05;2.67;;;11.90;60.90;;;;;;5100993;28;20062;-61
2022/05/03 01:01:40;;;;;;;3.28;2.97;;;11.80;61.00;;;;;;5108562;28;20028;-63
2022/05/03 01:04:39;;;;;;;4.05;2.95;;;11.80;60.40;;;;;;5105796;28;20437;-62
2022/05/03 01:07:46;;;;;;;3.08;2.75;;;11.80;61.50;;;;;;5109357;28;20024;-63
2022/05/03 01:10:41;;;;;;;3.15;2.85;;;11.80;61.40;;;;;;5105286;28;20050;-62
2022/05/03 01:13:09;;;;;;;8.38;2.88;;;11.70;61.00;;;;;;5110935;28;20407;-61
2022/05/03 01:15:42;;;;;;;2.90;2.65;;;11.70;60.40;;;;;;5110745;28;20047;-61
2022/05/03 01:18:07;;;;;;;3.38;3.00;;;11.60;60.30;;;;;;5132545;27;20017;-62
2022/05/03 01:20:42;;;;;;;4.75;3.20;;;11.60;60.40;;;;;;5111359;28;20032;-61
2022/05/03 01:23:46;;;;;;;3.65;3.33;;;11.60;60.70;;;;;;5114920;28;20110;-61
2022/05/03 01:26:15;;;;;;;4.45;3.03;;;11.50;61.70;;;;;;5107330;28;20027;-61
2022/05/03 01:29:00;;;;;;;6.40;2.97;;;11.50;60.50;;;;;;5107298;28;20032;-61
2022/05/03 01:31:28;;;;;;;3.47;3.08;;;11.50;60.70;;;;;;5105708;28;20024;-61
2022/05/03 01:34:00;;;;;;;8.32;3.33;;;11.40;60.80;;;;;;5110834;28;20017;-62
2022/05/03 01:36:56;;;;;;;8.70;3.40;;;11.40;61.20;;;;;;5106874;28;20091;-61
2022/05/03 01:39:56;;;;;;;5.10;3.30;;;11.40;62.00;;;;;;5111361;28;20106;-62
2022/05/03 01:42:44;;;;;;;4.07;2.92;;;11.40;62.00;;;;;;5117851;28;20083;-62
2022/05/03 01:45:11;;;;;;;3.30;3.00;;;11.40;60.90;;;;;;5111954;28;20030;-61
2022/05/03 01:47:48;;;;;;;6.13;3.38;;;11.30;61.00;;;;;;5109717;28;20077;-61
2022/05/03 01:50:34;;;;;;;4.95;3.30;;;11.30;61.60;;;;;;5099382;28;20098;-61
2022/05/03 01:53:15;;;;;;;4.00;3.20;;;11.30;62.40;;;;;;5100094;28;20023;-63
2022/05/03 01:56:19;;;;;;;5.93;3.92;;;11.20;62.20;;;;;;5110956;28;20024;-62
2022/05/03 01:58:51;;;;;;;4.07;3.67;;;11.20;62.80;;;;;;5110391;28;20036;-61
2022/05/03 02:01:41;;;;;;;4.40;3.38;;;11.20;61.50;;;;;;5107111;28;20084;-60
2022/05/03 02:04:35;;;;;;;4.10;3.60;;;11.20;62.40;;;;;;5106742;28;20055;-61
2022/05/03 02:07:09;;;;;;;4.55;2.95;;;11.10;62.80;;;;;;5097877;28;20048;-60
2022/05/03 02:10:06;;;;;;;6.05;3.17;;;11.10;61.50;;;;;;5106661;28;20027;-61
2022/05/03 02:12:32;;;;;;;4.03;3.03;;;11.10;63.20;;;;;;5099557;28;20016;-63
2022/05/03 02:15:11;;;;;;;3.78;3.08;;;11.10;61.60;;;;;;5113217;28;20035;-61
2022/05/03 02:17:54;;;;;;;5.10;3.65;;;11.00;62.50;;;;;;5103455;28;20022;-61
2022/05/03 02:20:30;;;;;;;3.58;3.22;;;11.00;62.40;;;;;;5107754;28;20177;-60
2022/05/03 02:23:15;;;;;;;3.60;3.30;;;10.90;62.10;;;;;;5096442;28;20402;-62
2022/05/03 02:25:59;;;;;;;4.78;3.25;;;10.90;62.60;;;;;;5107576;28;20016;-61
2022/05/03 02:28:33;;;;;;;6.03;3.55;;;10.90;61.50;;;;;;5108993;28;20032;-61
2022/05/03 02:31:03;;;;;;;4.20;3.40;;;10.80;62.10;;;;;;5099313;28;20040;-60
2022/05/03 02:33:35;;;;;;;4.03;3.55;;;10.80;62.90;;;;;;5103003;28;20071;-62
2022/05/03 02:36:03;;;;;;;5.82;3.58;;;10.80;62.70;;;;;;5101744;28;20719;-62
2022/05/03 02:38:48;;;;;;;4.03;3.63;;;10.70;62.20;;;;;;5099500;28;20020;-61
2022/05/03 02:41:15;;;;;;;;;;;10.70;63.40;;;;;;5103318;28;20047;-61
2022/05/03 02:43:42;;;;;;;6.68;3.20;;;10.70;62.80;;;;;;5105852;28;19919;-62
2022/05/03 02:46:33;;;;;;;3.63;3.17;;;10.70;61.30;;;;;;5101250;28;20039;-60
2022/05/03 02:49:04;;;;;;;3.60;3.30;;;10.70;62.60;;;;;;5114260;28;20035;-61
2022/05/03 02:51:40;;;;;;;4.30;3.45;;;10.60;62.60;;;;;;5108208;28;20023;-62
2022/05/03 02:54:43;;;;;;;4.20;3.42;;;10.60;63.00;;;;;;5107828;28;20099;-60
2022/05/03 02:57:43;;;;;;;7.38;3.00;;;10.50;62.80;;;;;;5111809;28;20364;-62
2022/05/03 03:02:53;;;;;;;;;;;10.50;62.30;;;;;;5114552;28;20501;-62
2022/05/03 03:05:23;;;;;;;3.83;2.85;;;10.50;62.50;;;;;;5096954;28;19912;-61
2022/05/03 03:08:02;;;;;;;6.88;3.30;;;10.50;61.80;;;;;;5101148;28;20024;-60
2022/05/03 03:10:38;;;;;;;5.35;3.15;;;10.50;62.80;;;;;;5106818;28;20111;-62
2022/05/03 03:13:36;;;;;;;4.82;3.35;;;10.40;62.40;;;;;;5101156;28;20035;-60
2022/05/03 03:16:02;;;;;;;3.47;3.17;;;10.40;63.30;;;;;;5101203;28;20032;-60
2022/05/03 03:18:31;;;;;;;5.15;4.00;;;10.40;62.30;;;;;;5099750;28;20028;-61
2022/05/03 03:20:59;;;;;;;3.72;3.20;;;10.40;62.60;;;;;;5109027;28;20016;-60
2022/05/03 03:23:31;;;;;;;7.18;3.60;;;10.30;62.50;;;;;;5112459;28;20032;-58
2022/05/03 03:25:58;;;;;;;5.55;3.45;;;10.20;62.70;;;;;;5100981;28;20038;-60
2022/05/03 03:28:24;;;;;;;4.18;3.38;;;10.20;62.60;;;;;;5101668;28;20046;-60
2022/05/03 03:30:51;;;;;;;3.67;3.17;;;10.30;62.70;;;;;;5107572;28;20524;-61
2022/05/03 03:33:18;;;;;;;5.05;3.35;;;10.30;62.90;;;;;;5102470;28;20130;-60
2022/05/03 03:35:46;;;;;;;3.28;2.97;;;10.30;63.00;;;;;;5098007;28;20031;-60
2022/05/03 03:38:16;;;;;;;4.65;3.70;;;10.30;63.00;;;;;;5100162;28;20031;-60
2022/05/03 03:40:48;;;;;;;3.72;3.08;;;10.30;63.20;;;;;;5093895;28;20050;-60
2022/05/03 03:43:15;;;;;;;3.95;3.33;;;10.30;62.90;;;;;;5107803;28;20012;-61
2022/05/03 03:45:41;;;;;;;4.43;3.47;;;10.30;62.80;;;;;;5109510;28;20031;-61
2022/05/03 03:48:08;;;;;;;4.07;3.08;;;10.20;62.70;;;;;;5109029;28;20490;-60
2022/05/03 03:50:37;;;;;;;3.67;3.35;;;10.20;62.80;;;;;;5099495;28;20040;-61
2022/05/03 03:53:03;;;;;;;4.43;3.35;;;10.20;62.90;;;;;;5091915;28;20031;-60
2022/05/03 03:55:29;;;;;;;8.90;3.53;;;10.20;62.90;;;;;;5096072;28;20024;-60
2022/05/03 03:57:56;;;;;;;4.38;3.13;;;10.20;63.10;;;;;;5100295;28;20024;-60
2022/05/03 04:00:23;;;;;;;4.55;3.65;;;10.10;63.10;;;;;;5102596;28;20081;-60
2022/05/03 04:02:49;;;;;;;4.82;3.47;;;10.10;63.20;;;;;;5103154;28;20012;-61
2022/05/03 04:05:16;;;;;;;7.43;3.67;;;10.10;63.30;;;;;;5105356;28;20364;-60
2022/05/03 04:07:42;;;;;;;3.58;2.95;;;10.10;63.50;;;;;;5100099;28;20028;-62
2022/05/03 04:10:08;;;;;;;3.83;2.92;;;10.10;63.70;;;;;;5100306;28;20367;-60
2022/05/03 04:12:34;;;;;;;3.40;2.83;;;10.10;63.70;;;;;;5108584;28;20016;-61
2022/05/03 04:15:00;;;;;;;6.15;3.40;;;10.10;63.80;;;;;;5104240;28;20066;-61
2022/05/03 04:17:26;;;;;;;4.10;3.33;;;10.10;63.80;;;;;;5104090;28;20033;-62
2022/05/03 04:19:51;;;;;;;4.63;3.83;;;10.00;63.90;;;;;;5102396;28;20032;-62
2022/05/03 04:22:26;;;;;;;5.43;4.00;;;10.00;64.00;;;;;;5104447;28;20046;-61
2022/05/03 04:24:52;;;;;;;5.38;3.47;;;10.00;64.40;;;;;;5106618;28;20354;-61
2022/05/03 04:27:19;;;;;;;5.18;4.07;;;10.00;63.90;;;;;;5092400;28;20056;-60
2022/05/03 04:29:44;;;;;;;5.35;3.95;;;10.00;63.90;;;;;;5101646;28;20112;-61
2022/05/03 04:32:10;;;;;;;4.90;4.03;;;10.00;64.00;;;;;;5105208;28;20024;-60
2022/05/03 04:34:36;;;;;;;4.25;3.83;;;10.00;64.10;;;;;;5103317;28;20020;-60
2022/05/03 04:37:01;;;;;;;7.95;4.05;;;10.00;64.90;;;;;;5101170;28;20042;-60
2022/05/03 04:39:27;;;;;;;3.90;3.50;;;10.00;64.10;;;;;;5104610;28;20064;-60
2022/05/03 04:41:53;;;;;;;8.00;3.88;;;10.00;64.20;;;;;;5097051;28;20009;-60
2022/05/03 04:44:18;;;;;;;5.75;3.72;;;10.10;64.20;;;;;;5101525;28;20075;-60
2022/05/03 04:46:44;;;;;;;4.90;3.53;;;10.10;64.40;;;;;;5104022;28;20451;-60
2022/05/03 04:49:10;;;;;;;4.68;3.75;;;10.10;64.40;;;;;;5108081;28;20085;-60
2022/05/03 04:51:35;;;;;;;4.40;3.42;;;10.10;64.50;;;;;;5099758;28;20441;-60
2022/05/03 04:54:01;;;;;;;3.65;3.30;;;10.10;64.50;;;;;;5099491;28;20360;-60
2022/05/03 04:56:27;;;;;;;4.25;3.60;;;10.20;64.50;;;;;;5112040;28;20030;-60
2022/05/03 04:58:56;;;;;;;4.30;3.55;;;10.20;64.50;;;;;;5108522;28;20072;-60
2022/05/03 05:01:22;;;;;;;6.57;4.18;;;10.20;64.50;;;;;;5090951;28;20028;-60
2022/05/03 05:03:48;;;;;;;5.65;3.75;;;10.30;64.50;;;;;;5097237;28;20021;-60
2022/05/03 05:06:14;;;;;;;4.50;3.78;;;10.30;64.50;;;;;;5107784;28;20103;-60
2022/05/03 05:08:42;;;;;;;6.53;3.63;;;10.40;64.60;;;;;;5098704;28;20018;-60
2022/05/03 05:11:08;;;;;;;4.47;3.85;;;10.50;64.80;;;;;;5106177;28;20501;-60
2022/05/03 05:13:36;;;;;;;4.85;3.63;;;10.50;64.60;;;;;;5107869;28;20083;-61
2022/05/03 05:16:02;;;;;;;5.95;3.85;;;10.60;64.60;;;;;;5108845;28;20015;-61
2022/05/03 05:18:28;;;;;;;8.30;3.63;;;10.70;64.60;;;;;;5104211;28;20082;-61
2022/05/03 05:20:54;;;;;;;4.50;4.05;;;10.80;64.70;;;;;;5100862;28;20028;-61
2022/05/03 05:23:20;;;;;;;5.00;4.18;;;10.90;64.80;;;;;;5104024;28;20048;-60
2022/05/03 05:25:49;;;;;;;6.22;4.35;;;11.00;64.80;;;;;;5099459;28;20023;-62
2022/05/03 05:28:19;;;;;;;6.78;3.83;;;11.10;64.80;;;;;;5106137;28;20024;-61
2022/05/03 05:30:45;;;;;;;6.90;4.03;;;11.20;64.70;;;;;;5091899;28;20032;-60
2022/05/03 05:33:11;;;;;;;8.63;3.63;;;11.30;64.50;;;;;;5107035;28;20028;-61
2022/05/03 05:35:38;;;;;;;5.93;3.70;;;11.50;64.50;;;;;;5107821;28;20558;-61
2022/05/03 05:38:04;;;;;;;4.78;3.67;;;11.50;64.30;;;;;;5104401;28;20025;-61
2022/05/03 05:40:30;;;;;;;7.53;3.85;;;11.70;64.10;;;;;;5105490;28;20044;-60
2022/05/03 05:42:55;;;;;;;7.15;3.72;;;11.80;63.90;;;;;;5097258;28;20457;-61
2022/05/03 05:45:21;;;;;;;10.43;4.43;;;11.90;63.70;;;;;;5099433;28;20024;-59
2022/05/03 05:47:47;;;;;;;9.55;3.78;;;12.00;63.60;;;;;;5097329;28;20012;-60
2022/05/03 05:50:13;;;;;;;7.68;4.28;;;12.10;63.60;;;;;;5108235;28;20062;-62
2022/05/03 05:55:23;;;;;;;;;;;12.40;63.50;;;;;;5101300;28;20046;-62
2022/05/03 05:57:49;;;;;;;7.13;3.40;;;12.50;63.20;;;;;;5106472;28;20010;-61
2022/05/03 06:00:17;;;;;;;11.82;4.28;;;12.70;62.50;;;;;;5111029;28;20046;-61
2022/05/03 06:02:43;;;;;;;7.82;4.28;;;12.70;62.50;;;;;;5111046;28;20078;-61
2022/05/03 06:05:09;;;;;;;9.43;4.18;;;12.80;62.60;;;;;;5114677;28;20031;-60
2022/05/03 06:07:35;;;;;;;6.15;3.83;;;13.00;62.80;;;;;;5103514;28;20555;-61
2022/05/03 06:10:01;;;;;;;11.18;4.22;;;13.10;62.70;;;;;;5099934;28;20024;-61
2022/05/03 06:12:26;;;;;;;18.95;4.70;;;13.20;62.50;;;;;;5106371;28;20020;-61
2022/05/03 06:14:52;;;;;;;13.65;4.32;;;13.40;62.30;;;;;;5111000;28;20079;-61
2022/05/03 06:17:18;;;;;;;7.82;4.20;;;13.50;61.90;;;;;;5111399;28;20078;-61
2022/05/03 06:19:44;;;;;;;7.30;4.28;;;13.70;61.70;;;;;;5098446;28;20033;-60
2022/05/03 06:22:10;;;;;;;9.00;4.07;;;13.80;61.60;;;;;;5105909;28;20060;-61
2022/05/03 06:24:36;;;;;;;9.80;4.28;;;14.00;61.30;;;;;;5098533;28;20107;-61
2022/05/03 06:27:01;;;;;;;6.85;3.70;;;14.10;61.30;;;;;;5103448;28;20027;-60
2022/05/03 06:29:27;;;;;;;6.45;3.97;;;14.30;61.20;;;;;;5106876;28;20046;-60
2022/05/03 06:31:53;;;;;;;7.40;3.92;;;14.40;61.00;;;;;;5108824;28;20019;-61
2022/05/03 06:34:18;;;;;;;7.35;4.25;;;14.60;60.70;;;;;;5104690;28;20059;-61
2022/05/03 06:36:45;;;;;;;6.85;4.00;;;14.70;60.60;;;;;;5108715;28;20012;-60
2022/05/03 06:39:12;;;;;;;6.15;4.30;;;14.90;60.60;;;;;;5103741;28;20028;-61
2022/05/03 06:41:37;;;;;;;5.75;4.10;;;15.00;60.50;;;;;;5103982;28;20056;-61
2022/05/03 06:44:03;;;;;;;8.18;3.83;;;15.20;60.40;;;;;;5109261;28;20035;-61
2022/05/03 06:46:29;;;;;;;13.13;4.30;;;15.40;60.30;;;;;;5103112;28;20016;-61
2022/05/03 06:48:55;;;;;;;4.72;3.45;;;15.50;60.10;;;;;;5103207;28;20051;-61
2022/05/03 06:51:21;;;;;;;7.68;4.15;;;15.70;59.80;;;;;;5103716;28;20036;-61
2022/05/03 06:53:48;;;;;;;4.25;3.53;;;15.80;59.50;;;;;;5105015;28;20040;-61
2022/05/03 06:56:17;;;;;;;4.55;4.10;;;16.00;59.40;;;;;;5109947;28;20057;-61
2022/05/03 06:58:43;;;;;;;6.18;4.30;;;16.10;59.20;;;;;;5105282;28;20031;-61
2022/05/03 07:01:10;;;;;;;8.70;4.40;;;16.30;59.60;;;;;;5101542;28;20028;-61
2022/05/03 07:03:37;;;;;;;8.77;5.30;;;16.50;59.00;;;;;;5101785;28;20379;-60
2022/05/03 07:06:03;;;;;;;8.88;5.63;;;16.60;58.80;;;;;;5108158;28;20028;-61
2022/05/03 07:08:29;;;;;;;7.85;5.32;;;16.80;58.70;;;;;;5103285;28;20390;-61
2022/05/03 07:10:55;;;;;;;7.18;5.22;;;16.90;58.60;;;;;;5098883;28;20048;-61
2022/05/03 07:13:23;;;;;;;7.30;4.88;;;17.00;58.50;;;;;;5101040;28;20012;-61
2022/05/03 07:15:53;;;;;;;9.13;4.97;;;17.20;58.30;;;;;;5102331;28;20108;-61
2022/05/03 07:23:48;;;;;;;;;;;17.60;57.60;;;;;;5099175;28;20383;-62
2022/05/03 07:26:14;;;;;;;7.18;3.90;;;17.80;57.00;;;;;;5101356;28;19911;-61
2022/05/03 07:28:40;;;;;;;5.15;3.33;;;17.90;56.90;;;;;;5096844;28;20047;-61
2022/05/03 07:31:06;;;;;;;3.45;2.90;;;18.00;56.50;;;;;;5098538;28;20055;-61
2022/05/03 07:33:32;;;;;;;4.97;3.60;;;18.10;56.10;;;;;;5108660;28;20107;-61
2022/05/03 07:35:58;;;;;;;5.75;4.30;;;18.20;56.10;;;;;;5109352;28;20039;-61
2022/05/03 07:38:23;;;;;;;4.30;3.60;;;18.30;56.10;;;;;;5108862;28;20020;-62
2022/05/03 07:40:49;;;;;;;5.13;3.75;;;18.40;56.00;;;;;;5100237;28;20020;-61
2022/05/03 07:43:15;;;;;;;5.35;3.78;;;18.50;55.90;;;;;;5107557;28;20027;-62
2022/05/03 07:45:40;;;;;;;6.90;3.95;;;18.60;55.90;;;;;;5103260;28;20028;-61
2022/05/03 07:48:06;;;;;;;6.95;4.90;;;18.70;55.70;;;;;;5111781;28;20032;-61
2022/05/03 07:50:32;;;;;;;8.35;4.70;;;18.80;55.70;;;;;;5109466;28;20040;-62
2022/05/03 07:52:58;;;;;;;5.13;4.07;;;18.90;55.60;;;;;;5098277;28;20563;-62
2022/05/03 07:55:24;;;;;;;5.97;3.60;;;19.10;55.00;;;;;;5106663;28;20028;-61
2022/05/03 07:57:50;;;;;;;6.25;4.07;;;19.20;54.70;;;;;;5108264;28;20024;-61
2022/05/03 08:00:16;;;;;;;5.80;3.83;;;19.20;54.40;;;;;;5109068;28;20047;-61
2022/05/03 08:02:41;;;;;;;7.10;4.50;;;19.30;54.20;;;;;;5106770;28;20024;-62
2022/05/03 08:05:08;;;;;;;4.60;3.70;;;19.40;54.10;;;;;;5107243;28;20043;-61
2022/05/03 08:07:35;;;;;;;5.88;4.25;;;19.50;54.10;;;;;;5101453;28;20013;-62
2022/05/03 08:10:01;;;;;;;6.22;4.53;;;19.50;54.10;;;;;;5100077;28;20028;-61
2022/05/03 08:12:27;;;;;;;8.18;4.40;;;19.70;54.50;;;;;;5103894;28;20015;-61
2022/05/03 08:14:53;;;;;;;6.20;4.53;;;19.80;54.60;;;;;;5104467;28;20024;-61
2022/05/03 08:17:19;;;;;;;5.03;3.65;;;19.90;53.90;;;;;;5107909;28;20112;-62
2022/05/03 08:19:45;;;;;;;5.32;3.85;;;20.10;54.10;;;;;;5100529;28;20043;-61
2022/05/03 08:22:11;;;;;;;4.88;3.65;;;20.20;53.70;;;;;;5104107;28;20087;-61
2022/05/03 08:24:37;;;;;;;4.15;3.65;;;20.30;53.30;;;;;;5102658;28;20472;-61
2022/05/03 08:27:03;;;;;;;4.38;3.50;;;20.50;53.00;;;;;;5092310;28;20039;-61
2022/05/03 08:29:31;;;;;;;4.32;3.67;;;20.60;52.50;;;;;;5099386;28;20028;-61
2022/05/03 08:31:57;;;;;;;8.52;4.43;;;20.60;52.50;;;;;;5101929;28;20038;-61
2022/05/03 08:34:23;;;;;;;6.03;3.92;;;20.70;52.50;;;;;;5095196;28;20035;-61
2022/05/03 08:42:17;;;;;;;4.05;3.25;;;21.10;51.90;;;;;;5101256;28;20043;-60
2022/05/03 08:44:43;;;;;;;3.65;2.90;;;21.20;51.70;;;;;;5108942;28;20024;-61
2022/05/03 08:47:09;;;;;;;3.22;2.90;;;21.30;51.10;;;;;;5101687;28;20176;-61
2022/05/03 08:49:53;;;;;;;7.88;4.18;;;21.40;50.80;;;;;;5101986;28;20059;-61
2022/05/03 08:52:21;;;;;;;5.00;3.90;;;21.40;49.80;;;;;;5100456;28;20032;-61
2022/05/03 08:54:48;;;;;;;4.97;4.13;;;21.50;50.80;;;;;;5100696;28;20028;-61
2022/05/03 08:57:14;;;;;;;7.95;4.30;;;21.60;50.70;;;;;;5102988;28;20519;-61
2022/05/03 08:59:43;;;;;;;5.43;3.30;;;21.70;50.90;;;;;;5103012;28;20099;-62
2022/05/03 09:02:09;;;;;;;5.80;3.80;;;21.80;50.70;;;;;;5097737;28;20059;-61
2022/05/03 09:04:35;;;;;;;4.55;3.97;;;22.00;50.50;;;;;;5102003;28;20087;-61
2022/05/03 09:07:17;;;;;;;4.55;4.10;;;22.10;49.30;;;;;;5099986;28;20062;-61
2022/05/03 09:09:43;;;;;;;6.05;4.22;;;22.10;49.20;;;;;;5101677;28;20022;-61
2022/05/03 09:12:27;;;;;;;5.10;3.35;;;22.20;49.30;;;;;;5104018;28;20080;-61
2022/05/03 09:14:56;;;;;;;8.60;3.50;;;22.30;48.00;;;;;;5097115;28;20041;-61
2022/05/03 09:17:45;;;;;;;7.25;3.55;;;22.30;48.40;;;;;;5107636;28;20020;-61
2022/05/03 09:25:53;;;;;;;3.58;3.17;;;22.50;48.40;;;;;;5106145;28;20043;-61
2022/05/03 09:28:21;;;;;;;5.28;2.80;;;22.60;48.10;;;;;;5104737;28;20024;-61
2022/05/03 09:30:50;;;;;;;3.85;3.38;;;22.60;47.30;;;;;;5112582;28;20020;-62
2022/05/03 09:33:21;;;;;;;3.53;3.15;;;22.70;47.50;;;;;;5103279;28;20049;-61
2022/05/03 09:35:48;;;;;;;4.28;3.50;;;22.80;47.30;;;;;;5111870;28;20019;-61
2022/05/03 09:38:14;;;;;;;2.67;2.45;;;22.90;47.40;;;;;;5108573;28;20020;-61
2022/05/03 09:40:45;;;;;;;4.22;2.13;;;23.00;47.60;;;;;;5097333;28;20028;-61
2022/05/03 09:43:12;;;;;;;6.75;2.65;;;23.10;47.60;;;;;;5111826;28;20020;-62
2022/05/03 09:45:39;;;;;;;2.67;2.30;;;23.20;46.90;;;;;;5103272;28;20259;-62
2022/05/03 09:48:05;;;;;;;2.35;1.60;;;23.30;46.10;;;;;;5106931;28;20020;-61
2022/05/03 09:50:42;;;;;;;1.40;1.30;;;23.40;45.50;;;;;;5107268;28;20046;-62
2022/05/03 09:53:08;;;;;;;3.13;1.35;;;23.50;45.40;;;;;;5096583;28;20051;-61
2022/05/03 09:55:36;;;;;;;3.35;1.80;;;23.60;45.70;;;;;;5110874;28;20020;-62
2022/05/03 09:58:09;;;;;;;6.28;1.35;;;23.60;45.00;;;;;;5105060;28;20561;-61
2022/05/03 10:00:38;;;;;;;2.03;1.48;;;23.70;45.10;;;;;;5100423;28;20038;-61
2022/05/03 10:03:07;;;;;;;2.95;1.73;;;23.80;45.00;;;;;;5094469;28;20110;-61
2022/05/03 10:05:34;;;;;;;3.17;1.90;;;23.90;45.00;;;;;;5113551;28;20012;-61
2022/05/03 10:08:00;;;;;;;2.65;2.10;;;23.90;44.70;;;;;;5102966;28;20036;-61
2022/05/03 10:10:26;;;;;;;2.28;1.85;;;24.00;44.20;;;;;;5113107;28;20218;-61
2022/05/03 10:12:54;;;;;;;5.40;1.77;;;24.00;43.90;;;;;;5099764;28;20483;-61
2022/05/03 10:21:23;;;;;;;1.50;1.40;;;24.20;42.20;;;;;;5106488;28;20065;-62
2022/05/03 10:24:05;;;;;;;5.18;2.03;;;24.20;42.70;;;;;;5109301;28;20054;-61
2022/05/03 10:27:07;;;;;;;2.90;1.70;;;24.20;42.20;;;;;;5110504;28;20026;-60
2022/05/03 10:29:37;;;;;;;2.25;1.80;;;24.30;41.90;;;;;;5080572;28;20039;-61
2022/05/03 10:32:14;;;;;;;2.25;1.58;;;24.40;42.80;;;;;;5105050;28;20024;-62
2022/05/03 10:34:42;;;;;;;2.35;1.60;;;24.50;43.00;;;;;;5111805;28;20015;-63
2022/05/03 10:37:10;;;;;;;1.77;1.55;;;24.50;42.80;;;;;;5101902;28;20028;-62
2022/05/03 10:39:54;;;;;;;1.77;1.52;;;24.60;42.20;;;;;;5099066;28;20048;-62
2022/05/03 10:42:23;;;;;;;2.13;1.55;;;24.70;42.00;;;;;;5100327;28;20465;-62
2022/05/03 10:45:09;;;;;;;2.80;1.55;;;24.70;42.30;;;;;;5108548;28;20043;-62
2022/05/03 10:47:52;;;;;;;3.85;1.70;;;24.80;41.90;;;;;;5121198;28;20059;-62
2022/05/03 10:50:23;;;;;;;1.98;1.33;;;24.90;41.40;;;;;;5107736;28;20048;-62
2022/05/03 10:53:06;;;;;;;3.22;2.05;;;25.00;41.60;;;;;;5104896;28;20032;-62
2022/05/03 10:55:40;;;;;;;2.47;1.75;;;25.10;40.90;;;;;;5102170;28;20038;-62
2022/05/03 10:58:28;;;;;;;2.10;1.73;;;25.20;41.80;;;;;;5099441;28;20051;-61
2022/05/03 11:01:19;;;;;;;2.08;1.50;;;25.30;40.50;;;;;;5104936;28;20036;-63
2022/05/03 11:03:48;;;;;;;3.45;1.70;;;25.40;40.20;;;;;;5105098;28;20020;-62
2022/05/03 11:09:18;;;;;;;4.00;1.60;;;25.50;40.30;;;;;;5097745;28;20033;-62
2022/05/03 11:11:43;;;;;;;2.47;1.70;;;25.60;40.70;;;;;;5099445;28;20032;-62
2022/05/03 11:14:21;;;;;;;5.00;1.52;;;25.80;41.50;;;;;;5103109;28;20038;-61
2022/05/03 11:17:08;;;;;;;3.83;1.92;;;25.90;40.80;;;;;;5102725;28;20077;-61
2022/05/03 11:19:52;;;;;;;3.10;2.22;;;26.10;40.80;;;;;;5097173;28;20028;-62
2022/05/03 11:22:25;;;;;;;4.40;2.00;;;26.30;40.30;;;;;;5101091;28;20043;-62
2022/05/03 11:24:54;;;;;;;2.23;2.03;;;26.40;41.20;;;;;;5099791;28;20428;-62
2022/05/03 11:27:21;;;;;;;1.70;1.60;;;26.50;40.90;;;;;;5107077;28;20052;-62
2022/05/03 11:30:17;;;;;;;2.78;1.50;;;26.70;40.40;;;;;;5103487;27;20024;-62
2022/05/03 11:32:43;;;;;;;3.78;1.40;;;26.80;40.30;;;;;;5086365;28;20043;-62
2022/05/03 11:35:27;;;;;;;4.60;1.40;;;26.90;39.50;;;;;;5104932;28;20091;-61
2022/05/03 11:37:56;;;;;;;;;;;27.00;37.70;;;;;;5106894;28;20015;-62
2022/05/03 11:40:26;;;;;;;3.00;1.48;;;27.00;38.30;;;;;;5100504;28;19925;-61
2022/05/03 11:42:51;;;;;;;3.42;1.50;;;26.80;37.80;;;;;;5105983;28;20032;-62
2022/05/03 11:45:18;;;;;;;3.08;1.50;;;26.60;37.30;;;;;;5103301;28;20021;-61
2022/05/03 11:47:47;;;;;;;3.25;1.98;;;26.40;37.50;;;;;;5105116;28;20027;-61
2022/05/03 11:55:58;;;;;;;3.30;1.38;;;26.10;36.50;;;;;;5101567;28;20127;-61
2022/05/03 11:56:00;;;;;;;2.60;1.90;;;25.40;37.60;;;;;;5109077;28;20085;-61
2022/05/03 11:58:31;;;;;;;2.10;1.90;;;25.10;37.60;;;;;;5106800;28;20034;-61
2022/05/03 12:00:57;;;;;;;3.20;1.63;;;24.80;37.60;;;;;;5086122;28;20064;-61
2022/05/03 12:03:23;;;;;;;1.65;1.50;;;24.50;38.10;;;;;;5102324;28;20024;-61
2022/05/03 12:06:04;;;;;;;3.53;1.85;;;24.20;38.80;;;;;;5104956;28;20098;-62
2022/05/03 12:08:30;;;;;;;3.38;1.80;;;23.90;38.60;;;;;;5100222;28;20107;-61
2022/05/03 12:10:56;;;;;;;3.60;1.88;;;23.70;39.60;;;;;;5098769;28;20306;-62
2022/05/03 12:13:22;;;;;;;2.88;1.80;;;23.40;39.90;;;;;;5103037;28;20021;-61
2022/05/03 12:16:08;;;;;;;1.85;1.48;;;23.30;40.10;;;;;;5102170;28;20047;-62
2022/05/03 12:18:41;;;;;;;5.28;2.75;;;23.10;41.20;;;;;;5097847;28;20536;-61
2022/05/03 12:21:18;;;;;;;4.93;1.73;;;23.00;41.00;;;;;;5102385;28;20028;-60
2022/05/03 12:23:46;;;;;;;1.80;1.55;;;22.90;41.20;;;;;;5100954;28;20463;-62
2022/05/03 12:26:28;;;;;;;2.33;1.77;;;22.90;41.60;;;;;;5104307;28;20052;-63
2022/05/03 12:28:56;;;;;;;3.28;1.65;;;22.90;42.00;;;;;;5108994;28;20032;-61
2022/05/03 12:31:27;;;;;;;2.22;1.50;;;22.90;42.00;;;;;;5101153;28;20031;-60
2022/05/03 12:33:57;;;;;;;3.28;1.63;;;22.90;41.50;;;;;;5093807;28;20043;-61
2022/05/03 12:36:43;;;;;;;2.00;1.65;;;22.90;41.50;;;;;;5104269;28;20047;-61
2022/05/03 12:39:23;;;;;;;2.05;1.48;;;22.90;40.70;;;;;;5108033;28;20027;-62
2022/05/03 12:42:08;;;;;;;3.40;1.75;;;22.90;41.50;;;;;;5108095;28;20030;-61
2022/05/03 12:44:54;;;;;;;2.05;1.30;;;23.00;41.00;;;;;;5103855;28;20016;-61
2022/05/03 12:47:22;;;;;;;1.60;1.17;;;23.20;41.40;;;;;;5098342;28;20030;-62
2022/05/03 12:49:48;;;;;;;4.10;1.35;;;23.40;42.40;;;;;;5098377;28;20079;-62
2022/05/03 12:52:14;;;;;;;2.28;1.20;;;23.60;40.80;;;;;;5100679;28;20020;-62
2022/05/03 12:54:44;;;;;;;5.32;1.60;;;23.80;40.00;;;;;;5101668;28;20474;-62
2022/05/03 12:59:56;;;;;;;1.75;1.20;;;24.20;39.10;;;;;;5107329;28;20188;-62
2022/05/03 13:02:22;;;;;;;3.35;1.35;;;24.40;40.80;;;;;;5100250;28;20024;-62
2022/05/03 13:04:48;;;;;;;3.38;1.50;;;24.70;40.50;;;;;;5101985;28;20012;-62
2022/05/03 13:07:15;;;;;;;2.35;1.25;;;24.90;40.30;;;;;;5100462;28;20031;-62
2022/05/03 13:09:41;;;;;;;4.32;1.50;;;25.20;38.80;;;;;;5105878;28;20537;-62
2022/05/03 13:12:07;;;;;;;2.67;1.33;;;25.40;38.60;;;;;;5109380;28;20035;-62
2022/05/03 13:14:34;;;;;;;1.80;1.15;;;25.60;37.30;;;;;;5100615;28;20020;-62
2022/05/03 13:16:59;;;;;;;1.63;1.30;;;25.70;36.70;;;;;;5111219;28;20031;-62
2022/05/03 13:19:27;;;;;;;1.77;1.30;;;25.70;37.70;;;;;;5106103;28;20131;-62
2022/05/03 13:21:54;;;;;;;3.95;1.30;;;25.80;38.10;;;;;;5101328;28;20016;-62
2022/05/03 13:24:21;;;;;;;1.80;1.42;;;25.90;36.80;;;;;;5041668;28;20029;-62
2022/05/03 13:26:47;;;;;;;2.10;1.20;;;26.00;37.70;;;;;;5102159;28;20029;-63
2022/05/03 13:29:14;;;;;;;1.45;1.13;;;26.20;37.70;;;;;;5095092;28;20036;-64
2022/05/03 13:31:40;;;;;;;2.10;1.13;;;26.40;37.20;;;;;;5090541;28;20020;-63
2022/05/03 13:34:07;;;;;;;2.20;1.40;;;26.60;37.30;;;;;;5103565;28;20061;-64
2022/05/03 13:42:02;;;;;;;3.00;1.20;;;27.10;37.00;;;;;;5093196;28;19934;-63
2022/05/03 13:44:27;;;;;;;2.30;1.30;;;27.10;36.00;;;;;;5106607;28;20365;-63
2022/05/03 13:46:53;;;;;;;1.30;1.20;;;27.10;35.70;;;;;;5107950;28;20024;-63
2022/05/03 13:49:19;;;;;;;1.40;1.30;;;27.00;35.60;;;;;;5107214;28;20111;-63
2022/05/03 13:51:46;;;;;;;3.50;1.05;;;26.90;35.50;;;;;;5106137;28;20032;-62